sensor_id;sensor_type;location;lat;lon;timestamp;pressure;altitude;pressure_sealevel;temperature;humidity
7670;BME280;3877;42.562;27.636;2023-07-31T00:00:45;101017.53;;;23.52;100.00
7670;BME280;3877;42.562;27.636;2023-07-31T00:03:12;101015.09;;;23.51;100.00
7670;BME280;3877;42.562;27.636;2023-07-31T00:05:41;101025.72;;;23.54;100.00
7670;BME280;3877;42.562;27.636;2023-07-31T00:08:14;101024.06;;;23.49;100.00
7670;BME280;3877;42.562;27.636;2023-07-31T00:10:43;101013.88;;;23.52;100.00
7670;BME280;3877;42.562;27.636;2023-07-31T00:13:11;101027.34;;;23.62;100.00
7670;BME280;3877;42.562;27.636;2023-07-31T00:15:39;101019.19;;;23.64;100.00
7670;BME280;3877;42.562;27.636;2023-07-31T00:18:06;101025.34;;;23.66;100.00
7670;BME280;3877;42.562;27.636;2023-07-31T00:20:33;101033.50;;;23.68;100.00
7670;BME280;3877;42.562;27.636;2023-07-31T00:23:02;101015.91;;;23.62;100.00
7670;BME280;3877;42.562;27.636;2023-07-31T00:25:29;101023.28;;;23.63;100.00
7670;BME280;3877;42.562;27.636;2023-07-31T00:27:56;101014.69;;;23.56;100.00
7670;BME280;3877;42.562;27.636;2023-07-31T00:30:24;100995.84;;;23.48;100.00
7670;BME280;3877;42.562;27.636;2023-07-31T00:32:52;100999.97;;;23.47;100.00
7670;BME280;3877;42.562;27.636;2023-07-31T00:35:20;100996.69;;;23.45;100.00
7670;BME280;3877;42.562;27.636;2023-07-31T00:37:47;100999.06;;;23.43;100.00
7670;BME280;3877;42.562;27.636;2023-07-31T00:40:15;100999.91;;;23.40;100.00
7670;BME280;3877;42.562;27.636;2023-07-31T00:42:43;100994.97;;;23.23;100.00
7670;BME280;3877;42.562;27.636;2023-07-31T00:45:10;101012.94;;;23.23;100.00
7670;BME280;3877;42.562;27.636;2023-07-31T00:47:38;101013.72;;;23.17;100.00
7670;BME280;3877;42.562;27.636;2023-07-31T00:50:07;101019.38;;;23.09;100.00
7670;BME280;3877;42.562;27.636;2023-07-31T00:52:35;101019.38;;;23.02;100.00
7670;BME280;3877;42.562;27.636;2023-07-31T00:55:03;101007.84;;;22.85;100.00
7670;BME280;3877;42.562;27.636;2023-07-31T00:57:33;101002.88;;;22.71;100.00
7670;BME280;3877;42.562;27.636;2023-07-31T01:00:02;101021.59;;;22.68;100.00
7670;BME280;3877;42.562;27.636;2023-07-31T01:02:30;101024.09;;;22.70;100.00
7670;BME280;3877;42.562;27.636;2023-07-31T01:04:57;101035.44;;;22.63;100.00
7670;BME280;3877;42.562;27.636;2023-07-31T01:07:30;101040.25;;;22.52;100.00
7670;BME280;3877;42.562;27.636;2023-07-31T01:10:07;101018.16;;;22.42;100.00
7670;BME280;3877;42.562;27.636;2023-07-31T01:12:38;101027.13;;;22.44;100.00
7670;BME280;3877;42.562;27.636;2023-07-31T01:15:07;101027.56;;;22.42;100.00
7670;BME280;3877;42.562;27.636;2023-07-31T01:17:36;101023.81;;;22.38;100.00
7670;BME280;3877;42.562;27.636;2023-07-31T01:20:07;100917.28;;;21.69;100.00
7670;BME280;3877;42.562;27.636;2023-07-31T01:22:52;101017.25;;;22.31;100.00
7670;BME280;3877;42.562;27.636;2023-07-31T01:28:13;101016.41;;;22.27;100.00
7670;BME280;3877;42.562;27.636;2023-07-31T01:30:44;100970.53;;;21.98;100.00
7670;BME280;3877;42.562;27.636;2023-07-31T01:33:14;101031.13;;;22.29;100.00
7670;BME280;3877;42.562;27.636;2023-07-31T01:35:44;101034.38;;;22.31;100.00
7670;BME280;3877;42.562;27.636;2023-07-31T01:38:12;101038.06;;;22.35;100.00
7670;BME280;3877;42.562;27.636;2023-07-31T01:40:41;101032.00;;;22.40;100.00
7670;BME280;3877;42.562;27.636;2023-07-31T01:43:10;101049.13;;;22.40;100.00
7670;BME280;3877;42.562;27.636;2023-07-31T01:45:38;101018.78;;;22.17;100.00
7670;BME280;3877;42.562;27.636;2023-07-31T01:48:05;101060.56;;;22.40;100.00
7670;BME280;3877;42.562;27.636;2023-07-31T01:50:32;101070.31;;;22.39;100.00
7670;BME280;3877;42.562;27.636;2023-07-31T01:52:59;101065.41;;;22.32;100.00
7670;BME280;3877;42.562;27.636;2023-07-31T01:55:27;101068.59;;;22.23;100.00
7670;BME280;3877;42.562;27.636;2023-07-31T01:57:54;101052.66;;;22.22;100.00
7670;BME280;3877;42.562;27.636;2023-07-31T02:00:23;101036.31;;;22.19;100.00
7670;BME280;3877;42.562;27.636;2023-07-31T02:02:50;101034.34;;;22.23;100.00
7670;BME280;3877;42.562;27.636;2023-07-31T02:05:17;101039.63;;;22.21;100.00
7670;BME280;3877;42.562;27.636;2023-07-31T02:07:45;101041.63;;;22.17;100.00
7670;BME280;3877;42.562;27.636;2023-07-31T02:10:12;101039.97;;;22.16;100.00
7670;BME280;3877;42.562;27.636;2023-07-31T02:12:39;101049.78;;;22.19;100.00
7670;BME280;3877;42.562;27.636;2023-07-31T02:15:07;101047.31;;;22.17;100.00
7670;BME280;3877;42.562;27.636;2023-07-31T02:17:36;101055.88;;;22.17;100.00
7670;BME280;3877;42.562;27.636;2023-07-31T02:20:04;101075.88;;;22.17;100.00
7670;BME280;3877;42.562;27.636;2023-07-31T02:22:31;101055.41;;;22.08;100.00
7670;BME280;3877;42.562;27.636;2023-07-31T02:24:59;101068.50;;;22.13;100.00
7670;BME280;3877;42.562;27.636;2023-07-31T02:27:26;101067.22;;;22.10;100.00
7670;BME280;3877;42.562;27.636;2023-07-31T02:29:53;101059.16;;;22.19;100.00
7670;BME280;3877;42.562;27.636;2023-07-31T02:32:21;101061.22;;;22.19;100.00
7670;BME280;3877;42.562;27.636;2023-07-31T02:34:50;101054.59;;;22.11;100.00
7670;BME280;3877;42.562;27.636;2023-07-31T02:37:17;101072.94;;;22.10;100.00
7670;BME280;3877;42.562;27.636;2023-07-31T02:39:45;101070.50;;;22.12;100.00
7670;BME280;3877;42.562;27.636;2023-07-31T02:42:13;101056.16;;;22.05;100.00
7670;BME280;3877;42.562;27.636;2023-07-31T02:44:40;101063.53;;;22.10;100.00
7670;BME280;3877;42.562;27.636;2023-07-31T02:47:08;101067.22;;;22.10;100.00
7670;BME280;3877;42.562;27.636;2023-07-31T02:49:35;101069.31;;;22.13;100.00
7670;BME280;3877;42.562;27.636;2023-07-31T02:52:04;101081.56;;;22.14;100.00
7670;BME280;3877;42.562;27.636;2023-07-31T02:54:31;101082.72;;;22.09;100.00
7670;BME280;3877;42.562;27.636;2023-07-31T02:56:58;101080.66;;;22.06;100.00
7670;BME280;3877;42.562;27.636;2023-07-31T02:59:28;100978.06;;;21.39;100.00
7670;BME280;3877;42.562;27.636;2023-07-31T03:01:55;101070.03;;;22.03;100.00
7670;BME280;3877;42.562;27.636;2023-07-31T03:04:23;101037.63;;;21.85;100.00
7670;BME280;3877;42.562;27.636;2023-07-31T03:06:50;101069.94;;;21.96;100.00
7670;BME280;3877;42.562;27.636;2023-07-31T03:09:19;101068.31;;;21.95;100.00
7670;BME280;3877;42.562;27.636;2023-07-31T03:11:46;101056.53;;;22.00;100.00
7670;BME280;3877;42.562;27.636;2023-07-31T03:14:13;101066.38;;;22.06;100.00
7670;BME280;3877;42.562;27.636;2023-07-31T03:16:41;101041.59;;;22.14;100.00
7670;BME280;3877;42.562;27.636;2023-07-31T03:19:08;101041.22;;;22.19;100.00
7670;BME280;3877;42.562;27.636;2023-07-31T03:21:35;101049.81;;;22.22;100.00
7670;BME280;3877;42.562;27.636;2023-07-31T03:24:03;101047.38;;;22.24;100.00
7670;BME280;3877;42.562;27.636;2023-07-31T03:26:32;101050.66;;;22.27;100.00
7670;BME280;3877;42.562;27.636;2023-07-31T03:29:00;101055.56;;;22.30;100.00
7670;BME280;3877;42.562;27.636;2023-07-31T03:31:28;101071.13;;;22.36;100.00
7670;BME280;3877;42.562;27.636;2023-07-31T03:33:55;101087.81;;;22.34;100.00
7670;BME280;3877;42.562;27.636;2023-07-31T03:36:22;101104.53;;;22.32;100.00
7670;BME280;3877;42.562;27.636;2023-07-31T03:38:50;101091.06;;;22.29;100.00
7670;BME280;3877;42.562;27.636;2023-07-31T03:41:18;101082.50;;;22.29;100.00
7670;BME280;3877;42.562;27.636;2023-07-31T03:43:51;101053.09;;;22.24;100.00
7670;BME280;3877;42.562;27.636;2023-07-31T03:46:19;101054.38;;;22.34;100.00
7670;BME280;3877;42.562;27.636;2023-07-31T03:48:46;101073.66;;;22.48;100.00
7670;BME280;3877;42.562;27.636;2023-07-31T03:51:14;101067.06;;;22.37;100.00
7670;BME280;3877;42.562;27.636;2023-07-31T03:53:41;101065.16;;;22.55;100.00
7670;BME280;3877;42.562;27.636;2023-07-31T03:56:08;101061.94;;;22.63;100.00
7670;BME280;3877;42.562;27.636;2023-07-31T03:58:35;101060.03;;;22.78;100.00
7670;BME280;3877;42.562;27.636;2023-07-31T04:01:04;101060.56;;;22.94;100.00
7670;BME280;3877;42.562;27.636;2023-07-31T04:03:31;101058.94;;;23.00;100.00
7670;BME280;3877;42.562;27.636;2023-07-31T04:05:59;101063.91;;;23.10;100.00
7670;BME280;3877;42.562;27.636;2023-07-31T04:08:26;101061.91;;;23.22;100.00
7670;BME280;3877;42.562;27.636;2023-07-31T04:10:54;101046.47;;;23.37;100.00
7670;BME280;3877;42.562;27.636;2023-07-31T04:13:22;101057.16;;;23.54;100.00
7670;BME280;3877;42.562;27.636;2023-07-31T04:15:49;101053.94;;;23.70;100.00
7670;BME280;3877;42.562;27.636;2023-07-31T04:18:18;101060.53;;;23.84;100.00
7670;BME280;3877;42.562;27.636;2023-07-31T04:20:46;101040.91;;;23.93;100.00
7670;BME280;3877;42.562;27.636;2023-07-31T04:23:13;101046.25;;;24.13;100.00
7670;BME280;3877;42.562;27.636;2023-07-31T04:25:40;101040.16;;;24.21;100.00
7670;BME280;3877;42.562;27.636;2023-07-31T04:28:08;101047.91;;;24.42;100.00
7670;BME280;3877;42.562;27.636;2023-07-31T04:30:35;101043.78;;;24.57;100.00
7670;BME280;3877;42.562;27.636;2023-07-31T04:33:02;101043.38;;;24.69;100.00
7670;BME280;3877;42.562;27.636;2023-07-31T04:35:31;101044.16;;;24.80;100.00
7670;BME280;3877;42.562;27.636;2023-07-31T04:37:58;101048.25;;;24.94;100.00
7670;BME280;3877;42.562;27.636;2023-07-31T04:40:25;100965.59;;;24.67;100.00
7670;BME280;3877;42.562;27.636;2023-07-31T04:42:53;101051.34;;;25.38;100.00
7670;BME280;3877;42.562;27.636;2023-07-31T04:45:20;101052.13;;;25.49;100.00
7670;BME280;3877;42.562;27.636;2023-07-31T04:47:47;101057.41;;;25.65;100.00
7670;BME280;3877;42.562;27.636;2023-07-31T04:50:15;101048.72;;;25.76;100.00
7670;BME280;3877;42.562;27.636;2023-07-31T04:52:44;101044.44;;;26.05;100.00
7670;BME280;3877;42.562;27.636;2023-07-31T04:55:11;101042.72;;;26.18;100.00
7670;BME280;3877;42.562;27.636;2023-07-31T04:57:39;101040.06;;;26.41;100.00
7670;BME280;3877;42.562;27.636;2023-07-31T05:00:07;101033.88;;;26.46;100.00
7670;BME280;3877;42.562;27.636;2023-07-31T05:02:34;101043.31;;;26.43;100.00
7670;BME280;3877;42.562;27.636;2023-07-31T05:05:02;101042.44;;;26.50;100.00
7670;BME280;3877;42.562;27.636;2023-07-31T05:07:30;101041.34;;;26.78;100.00
7670;BME280;3877;42.562;27.636;2023-07-31T05:09:58;101035.56;;;27.19;100.00
7670;BME280;3877;42.562;27.636;2023-07-31T05:12:26;101033.84;;;27.59;100.00
7670;BME280;3877;42.562;27.636;2023-07-31T05:14:53;101028.06;;;27.59;100.00
7670;BME280;3877;42.562;27.636;2023-07-31T05:17:20;101033.63;;;27.73;100.00
7670;BME280;3877;42.562;27.636;2023-07-31T05:19:50;101032.59;;;28.13;100.00
7670;BME280;3877;42.562;27.636;2023-07-31T05:22:17;100974.13;;;28.40;100.00
7670;BME280;3877;42.562;27.636;2023-07-31T05:24:45;101028.66;;;29.56;100.00
7670;BME280;3877;42.562;27.636;2023-07-31T05:27:13;101027.06;;;30.23;100.00
7670;BME280;3877;42.562;27.636;2023-07-31T05:29:44;101014.28;;;31.02;100.00
7670;BME280;3877;42.562;27.636;2023-07-31T05:32:11;101015.72;;;31.77;100.00
7670;BME280;3877;42.562;27.636;2023-07-31T05:34:39;101020.72;;;32.39;100.00
7670;BME280;3877;42.562;27.636;2023-07-31T05:37:06;101023.91;;;32.67;100.00
7670;BME280;3877;42.562;27.636;2023-07-31T05:39:33;101031.38;;;32.42;100.00
7670;BME280;3877;42.562;27.636;2023-07-31T05:42:01;101014.38;;;32.79;100.00
7670;BME280;3877;42.562;27.636;2023-07-31T05:44:29;101029.59;;;32.58;100.00
7670;BME280;3877;42.562;27.636;2023-07-31T05:46:56;101033.94;;;32.40;100.00
7670;BME280;3877;42.562;27.636;2023-07-31T05:49:24;101042.25;;;32.51;100.00
7670;BME280;3877;42.562;27.636;2023-07-31T05:51:51;101033.22;;;32.36;100.00
7670;BME280;3877;42.562;27.636;2023-07-31T05:54:19;101041.25;;;32.07;100.00
7670;BME280;3877;42.562;27.636;2023-07-31T05:56:46;101041.44;;;31.75;100.00
7670;BME280;3877;42.562;27.636;2023-07-31T05:59:14;101036.94;;;31.99;100.00
7670;BME280;3877;42.562;27.636;2023-07-31T06:01:43;101044.34;;;31.75;100.00
7670;BME280;3877;42.562;27.636;2023-07-31T06:04:10;101043.34;;;31.52;100.00
7670;BME280;3877;42.562;27.636;2023-07-31T06:06:37;101040.66;;;31.99;100.00
7670;BME280;3877;42.562;27.636;2023-07-31T06:09:05;101036.03;;;32.02;100.00
7670;BME280;3877;42.562;27.636;2023-07-31T06:11:32;101041.44;;;31.33;100.00
7670;BME280;3877;42.562;27.636;2023-07-31T06:14:00;101045.06;;;30.63;100.00
7670;BME280;3877;42.562;27.636;2023-07-31T06:16:30;101051.06;;;30.04;100.00
7670;BME280;3877;42.562;27.636;2023-07-31T06:18:59;101057.28;;;29.67;100.00
7670;BME280;3877;42.562;27.636;2023-07-31T06:21:26;101060.41;;;29.17;100.00
7670;BME280;3877;42.562;27.636;2023-07-31T06:23:53;101057.66;;;29.09;100.00
7670;BME280;3877;42.562;27.636;2023-07-31T06:26:20;101063.66;;;29.19;100.00
7670;BME280;3877;42.562;27.636;2023-07-31T06:28:48;101059.53;;;29.59;100.00
7670;BME280;3877;42.562;27.636;2023-07-31T06:31:15;101057.84;;;29.97;100.00
7670;BME280;3877;42.562;27.636;2023-07-31T06:33:46;101062.03;;;30.45;100.00
7670;BME280;3877;42.562;27.636;2023-07-31T06:36:14;101049.59;;;30.48;100.00
7670;BME280;3877;42.562;27.636;2023-07-31T06:38:41;101044.91;;;30.54;100.00
7670;BME280;3877;42.562;27.636;2023-07-31T06:41:08;101062.09;;;30.41;100.00
7670;BME280;3877;42.562;27.636;2023-07-31T06:43:36;101064.75;;;30.36;100.00
7670;BME280;3877;42.562;27.636;2023-07-31T06:46:05;101069.06;;;30.28;100.00
7670;BME280;3877;42.562;27.636;2023-07-31T06:48:32;101059.41;;;30.18;100.00
7670;BME280;3877;42.562;27.636;2023-07-31T06:51:00;101064.91;;;30.29;100.00
7670;BME280;3877;42.562;27.636;2023-07-31T06:53:29;101059.84;;;30.33;100.00
7670;BME280;3877;42.562;27.636;2023-07-31T06:55:56;101059.03;;;30.16;100.00
7670;BME280;3877;42.562;27.636;2023-07-31T06:58:24;101059.50;;;30.15;100.00
7670;BME280;3877;42.562;27.636;2023-07-31T07:00:51;101061.56;;;29.98;100.00
7670;BME280;3877;42.562;27.636;2023-07-31T07:03:18;101057.13;;;29.74;100.00
7670;BME280;3877;42.562;27.636;2023-07-31T07:05:46;101059.16;;;29.37;100.00
7670;BME280;3877;42.562;27.636;2023-07-31T07:08:13;101064.50;;;29.39;100.00
7670;BME280;3877;42.562;27.636;2023-07-31T07:10:42;101062.22;;;29.50;100.00
7670;BME280;3877;42.562;27.636;2023-07-31T07:13:09;101062.97;;;29.70;100.00
7670;BME280;3877;42.562;27.636;2023-07-31T07:15:38;101069.13;;;29.72;100.00
7670;BME280;3877;42.562;27.636;2023-07-31T07:18:05;101059.16;;;29.57;100.00
7670;BME280;3877;42.562;27.636;2023-07-31T07:20:32;101068.00;;;29.66;100.00
7670;BME280;3877;42.562;27.636;2023-07-31T07:22:59;101070.06;;;29.85;100.00
7670;BME280;3877;42.562;27.636;2023-07-31T07:25:27;101066.31;;;29.88;100.00
7670;BME280;3877;42.562;27.636;2023-07-31T07:27:55;101064.97;;;29.73;100.00
7670;BME280;3877;42.562;27.636;2023-07-31T07:30:23;101073.31;;;29.87;100.00
7670;BME280;3877;42.562;27.636;2023-07-31T07:32:50;101060.66;;;29.81;100.00
7670;BME280;3877;42.562;27.636;2023-07-31T07:35:17;101066.66;;;29.90;100.00
7670;BME280;3877;42.562;27.636;2023-07-31T07:37:45;101071.69;;;29.86;100.00
7670;BME280;3877;42.562;27.636;2023-07-31T07:40:12;101073.66;;;29.53;100.00
7670;BME280;3877;42.562;27.636;2023-07-31T07:42:39;101073.44;;;29.64;100.00
7670;BME280;3877;42.562;27.636;2023-07-31T07:45:09;101075.66;;;29.56;100.00
7670;BME280;3877;42.562;27.636;2023-07-31T07:47:37;101072.47;;;29.11;100.00
7670;BME280;3877;42.562;27.636;2023-07-31T07:50:05;101077.81;;;28.90;100.00
7670;BME280;3877;42.562;27.636;2023-07-31T07:52:33;101083.66;;;28.86;100.00
7670;BME280;3877;42.562;27.636;2023-07-31T07:55:00;101078.75;;;29.06;100.00
7670;BME280;3877;42.562;27.636;2023-07-31T07:57:29;101081.72;;;29.42;100.00
7670;BME280;3877;42.562;27.636;2023-07-31T07:59:56;101081.00;;;29.58;100.00
7670;BME280;3877;42.562;27.636;2023-07-31T08:02:25;101085.75;;;29.84;100.00
7670;BME280;3877;42.562;27.636;2023-07-31T08:04:52;101077.47;;;29.86;100.00
7670;BME280;3877;42.562;27.636;2023-07-31T08:07:19;101082.09;;;29.64;100.00
7670;BME280;3877;42.562;27.636;2023-07-31T08:09:46;101076.53;;;29.73;100.00
7670;BME280;3877;42.562;27.636;2023-07-31T08:12:14;101070.88;;;29.86;100.00
7670;BME280;3877;42.562;27.636;2023-07-31T08:14:41;101083.66;;;30.05;100.00
7670;BME280;3877;42.562;27.636;2023-07-31T08:17:09;101081.53;;;30.25;100.00
7670;BME280;3877;42.562;27.636;2023-07-31T08:19:38;101058.97;;;30.36;100.00
7670;BME280;3877;42.562;27.636;2023-07-31T08:22:05;101091.78;;;30.46;100.00
7670;BME280;3877;42.562;27.636;2023-07-31T08:24:32;101086.72;;;30.50;100.00
7670;BME280;3877;42.562;27.636;2023-07-31T08:26:59;101086.97;;;30.39;100.00
7670;BME280;3877;42.562;27.636;2023-07-31T08:29:27;101094.28;;;30.43;100.00
7670;BME280;3877;42.562;27.636;2023-07-31T08:31:54;101092.94;;;30.48;100.00
7670;BME280;3877;42.562;27.636;2023-07-31T08:34:21;101082.81;;;30.72;100.00
7670;BME280;3877;42.562;27.636;2023-07-31T08:36:50;101096.03;;;30.73;100.00
7670;BME280;3877;42.562;27.636;2023-07-31T08:39:17;101098.72;;;30.48;100.00
7670;BME280;3877;42.562;27.636;2023-07-31T08:41:44;101091.78;;;30.62;100.00
7670;BME280;3877;42.562;27.636;2023-07-31T08:44:12;101090.31;;;31.02;100.00
7670;BME280;3877;42.562;27.636;2023-07-31T08:46:40;101088.94;;;30.91;100.00
7670;BME280;3877;42.562;27.636;2023-07-31T08:49:09;101096.84;;;30.74;100.00
7670;BME280;3877;42.562;27.636;2023-07-31T08:51:37;101100.25;;;31.01;100.00
7670;BME280;3877;42.562;27.636;2023-07-31T08:54:06;101100.75;;;31.41;100.00
7670;BME280;3877;42.562;27.636;2023-07-31T08:56:33;101095.88;;;31.67;100.00
7670;BME280;3877;42.562;27.636;2023-07-31T08:59:03;101107.06;;;31.52;100.00
7670;BME280;3877;42.562;27.636;2023-07-31T09:01:33;101103.44;;;31.77;100.00
7670;BME280;3877;42.562;27.636;2023-07-31T09:04:04;101091.31;;;32.07;100.00
7670;BME280;3877;42.562;27.636;2023-07-31T09:06:32;101102.69;;;32.27;100.00
7670;BME280;3877;42.562;27.636;2023-07-31T09:08:59;101091.69;;;32.22;100.00
7670;BME280;3877;42.562;27.636;2023-07-31T09:11:28;101089.38;;;32.17;100.00
7670;BME280;3877;42.562;27.636;2023-07-31T09:13:57;101086.72;;;32.10;100.00
7670;BME280;3877;42.562;27.636;2023-07-31T09:16:28;101074.81;;;31.79;100.00
7670;BME280;3877;42.562;27.636;2023-07-31T09:18:57;101057.09;;;31.64;100.00
7670;BME280;3877;42.562;27.636;2023-07-31T09:21:27;101091.63;;;31.72;100.00
7670;BME280;3877;42.562;27.636;2023-07-31T09:23:55;101094.38;;;31.62;100.00
7670;BME280;3877;42.562;27.636;2023-07-31T09:26:34;101088.38;;;31.69;100.00
7670;BME280;3877;42.562;27.636;2023-07-31T09:29:05;101093.75;;;31.84;100.00
7670;BME280;3877;42.562;27.636;2023-07-31T09:31:38;101099.28;;;31.91;100.00
7670;BME280;3877;42.562;27.636;2023-07-31T09:34:06;101095.34;;;31.85;100.00
7670;BME280;3877;42.562;27.636;2023-07-31T09:36:40;101103.47;;;31.90;100.00
7670;BME280;3877;42.562;27.636;2023-07-31T09:39:09;101108.00;;;32.03;100.00
7670;BME280;3877;42.562;27.636;2023-07-31T09:41:39;101107.50;;;31.80;100.00
7670;BME280;3877;42.562;27.636;2023-07-31T09:44:06;101103.19;;;31.72;100.00
7670;BME280;3877;42.562;27.636;2023-07-31T09:46:36;101095.34;;;31.85;100.00
7670;BME280;3877;42.562;27.636;2023-07-31T09:49:07;101106.59;;;32.08;100.00
7670;BME280;3877;42.562;27.636;2023-07-31T09:51:36;101113.47;;;31.31;100.00
7670;BME280;3877;42.562;27.636;2023-07-31T09:54:11;101123.53;;;30.94;100.00
7670;BME280;3877;42.562;27.636;2023-07-31T09:56:42;101110.81;;;31.65;100.00
7670;BME280;3877;42.562;27.636;2023-07-31T09:59:14;101116.19;;;31.80;100.00
7670;BME280;3877;42.562;27.636;2023-07-31T10:01:43;101126.59;;;31.64;100.00
7670;BME280;3877;42.562;27.636;2023-07-31T10:04:12;101128.41;;;31.58;100.00
7670;BME280;3877;42.562;27.636;2023-07-31T10:06:41;101120.25;;;31.69;100.00
7670;BME280;3877;42.562;27.636;2023-07-31T10:09:11;101132.66;;;31.25;100.00
7670;BME280;3877;42.562;27.636;2023-07-31T10:11:44;101127.13;;;31.02;100.00
7670;BME280;3877;42.562;27.636;2023-07-31T10:14:18;101110.66;;;30.66;100.00
7670;BME280;3877;42.562;27.636;2023-07-31T10:16:47;101093.81;;;30.29;100.00
7670;BME280;3877;42.562;27.636;2023-07-31T10:19:15;101103.38;;;29.70;100.00
7670;BME280;3877;42.562;27.636;2023-07-31T10:24:17;101111.56;;;29.36;100.00
7670;BME280;3877;42.562;27.636;2023-07-31T10:26:48;101112.53;;;29.49;100.00
7670;BME280;3877;42.562;27.636;2023-07-31T10:29:16;101090.09;;;29.37;100.00
7670;BME280;3877;42.562;27.636;2023-07-31T10:31:45;101109.28;;;29.24;100.00
7670;BME280;3877;42.562;27.636;2023-07-31T10:34:13;101093.44;;;28.92;100.00
7670;BME280;3877;42.562;27.636;2023-07-31T10:36:41;101100.53;;;28.61;100.00
7670;BME280;3877;42.562;27.636;2023-07-31T10:39:34;101091.63;;;28.52;100.00
7670;BME280;3877;42.562;27.636;2023-07-31T10:42:11;101099.28;;;28.39;100.00
7670;BME280;3877;42.562;27.636;2023-07-31T10:44:44;101096.88;;;28.34;100.00
7670;BME280;3877;42.562;27.636;2023-07-31T10:47:14;101094.41;;;28.36;100.00
7670;BME280;3877;42.562;27.636;2023-07-31T10:49:45;101083.31;;;28.07;100.00
7670;BME280;3877;42.562;27.636;2023-07-31T10:52:13;101100.00;;;28.19;100.00
7670;BME280;3877;42.562;27.636;2023-07-31T10:54:40;101097.25;;;28.12;100.00
7670;BME280;3877;42.562;27.636;2023-07-31T10:57:20;101087.09;;;28.27;100.00
7670;BME280;3877;42.562;27.636;2023-07-31T10:59:48;101090.78;;;28.55;100.00
7670;BME280;3877;42.562;27.636;2023-07-31T11:02:26;101098.41;;;28.42;100.00
7670;BME280;3877;42.562;27.636;2023-07-31T11:05:08;101096.78;;;28.41;100.00
7670;BME280;3877;42.562;27.636;2023-07-31T11:07:48;101089.50;;;28.33;100.00
7670;BME280;3877;42.562;27.636;2023-07-31T11:10:19;101095.97;;;28.40;100.00
7670;BME280;3877;42.562;27.636;2023-07-31T11:12:48;101080.09;;;28.52;100.00
7670;BME280;3877;42.562;27.636;2023-07-31T11:15:16;101085.91;;;28.75;100.00
7670;BME280;3877;42.562;27.636;2023-07-31T11:17:43;101084.38;;;28.90;100.00
7670;BME280;3877;42.562;27.636;2023-07-31T11:20:11;101083.78;;;28.79;100.00
7670;BME280;3877;42.562;27.636;2023-07-31T11:22:38;101088.28;;;28.80;100.00
7670;BME280;3877;42.562;27.636;2023-07-31T11:25:07;101090.72;;;28.58;100.00
7670;BME280;3877;42.562;27.636;2023-07-31T11:27:39;101066.38;;;28.09;100.00
7670;BME280;3877;42.562;27.636;2023-07-31T11:30:10;101091.13;;;28.34;100.00
7670;BME280;3877;42.562;27.636;2023-07-31T11:32:37;101038.88;;;28.05;100.00
7670;BME280;3877;42.562;27.636;2023-07-31T11:35:05;101086.34;;;28.23;100.00
7670;BME280;3877;42.562;27.636;2023-07-31T11:37:41;101086.91;;;28.15;100.00
7670;BME280;3877;42.562;27.636;2023-07-31T11:40:09;101081.59;;;28.10;100.00
7670;BME280;3877;42.562;27.636;2023-07-31T11:42:37;101068.31;;;27.93;100.00
7670;BME280;3877;42.562;27.636;2023-07-31T11:45:04;101078.44;;;28.01;100.00
7670;BME280;3877;42.562;27.636;2023-07-31T11:47:34;101086.00;;;27.91;100.00
7670;BME280;3877;42.562;27.636;2023-07-31T11:50:03;101084.09;;;27.81;100.00
7670;BME280;3877;42.562;27.636;2023-07-31T11:52:32;101066.66;;;27.65;100.00
7670;BME280;3877;42.562;27.636;2023-07-31T11:55:01;101087.09;;;27.70;100.00
7670;BME280;3877;42.562;27.636;2023-07-31T11:57:29;101082.28;;;27.64;100.00
7670;BME280;3877;42.562;27.636;2023-07-31T11:59:57;101072.41;;;27.65;100.00
7670;BME280;3877;42.562;27.636;2023-07-31T12:02:24;101059.44;;;27.50;100.00
7670;BME280;3877;42.562;27.636;2023-07-31T12:04:53;101073.38;;;27.55;100.00
7670;BME280;3877;42.562;27.636;2023-07-31T12:07:20;101065.91;;;27.57;100.00
7670;BME280;3877;42.562;27.636;2023-07-31T12:09:52;101070.84;;;27.57;100.00
7670;BME280;3877;42.562;27.636;2023-07-31T12:12:25;101075.91;;;27.46;100.00
7670;BME280;3877;42.562;27.636;2023-07-31T12:14:52;101079.75;;;27.69;100.00
7670;BME280;3877;42.562;27.636;2023-07-31T12:17:23;101067.78;;;27.71;100.00
7670;BME280;3877;42.562;27.636;2023-07-31T12:19:54;101059.94;;;27.75;100.00
7670;BME280;3877;42.562;27.636;2023-07-31T12:22:22;101055.91;;;27.69;100.00
7670;BME280;3877;42.562;27.636;2023-07-31T12:24:49;101054.94;;;27.79;100.00
7670;BME280;3877;42.562;27.636;2023-07-31T12:27:16;101072.47;;;27.88;100.00
7670;BME280;3877;42.562;27.636;2023-07-31T12:29:44;101073.22;;;28.22;100.00
7670;BME280;3877;42.562;27.636;2023-07-31T12:32:30;101069.38;;;28.56;100.00
7670;BME280;3877;42.562;27.636;2023-07-31T12:35:01;101065.41;;;28.46;100.00
7670;BME280;3877;42.562;27.636;2023-07-31T12:37:28;101062.22;;;28.87;100.00
7670;BME280;3877;42.562;27.636;2023-07-31T12:39:57;101059.19;;;29.14;100.00
7670;BME280;3877;42.562;27.636;2023-07-31T12:42:30;101051.63;;;29.43;100.00
7670;BME280;3877;42.562;27.636;2023-07-31T12:44:58;101049.72;;;29.73;100.00
7670;BME280;3877;42.562;27.636;2023-07-31T12:47:25;101042.41;;;30.04;100.00
7670;BME280;3877;42.562;27.636;2023-07-31T12:49:52;101047.84;;;30.02;100.00
7670;BME280;3877;42.562;27.636;2023-07-31T12:52:21;101043.94;;;30.09;100.00
7670;BME280;3877;42.562;27.636;2023-07-31T12:54:48;101047.31;;;30.07;100.00
7670;BME280;3877;42.562;27.636;2023-07-31T12:57:15;101047.19;;;29.94;100.00
7670;BME280;3877;42.562;27.636;2023-07-31T12:59:42;101042.31;;;29.91;100.00
7670;BME280;3877;42.562;27.636;2023-07-31T13:02:10;101038.97;;;30.09;100.00